createdAt,value
2022-10-18T00:01:10.739Z,100.00
2022-10-18T00:03:38.761Z,100.00
2022-10-18T00:06:08.956Z,100.00
2022-10-18T00:08:36.973Z,100.00
2022-10-18T00:11:06.254Z,100.00
2022-10-18T00:13:33.904Z,100.00
2022-10-18T00:16:04.567Z,100.00
2022-10-18T00:18:32.340Z,100.00
2022-10-18T00:21:01.864Z,100.00
2022-10-18T00:23:30.806Z,100.00
2022-10-18T00:26:03.481Z,100.00
2022-10-18T00:28:32.472Z,100.00
2022-10-18T00:31:11.319Z,100.00
2022-10-18T00:33:38.979Z,100.00
2022-10-18T00:36:07.148Z,100.00
2022-10-18T00:38:34.716Z,100.00
2022-10-18T00:41:02.264Z,100.00
2022-10-18T00:43:29.792Z,100.00
2022-10-18T00:45:58.677Z,100.00
2022-10-18T00:48:26.248Z,100.00
2022-10-18T00:50:54.341Z,100.00
2022-10-18T00:53:23.755Z,99.99
2022-10-18T00:55:51.829Z,100.00
2022-10-18T00:58:20.761Z,99.91
2022-10-18T01:00:48.408Z,99.92
2022-10-18T01:03:17.276Z,100.00
2022-10-18T01:05:47.537Z,100.00
2022-10-18T01:08:30.193Z,100.00
2022-10-18T01:11:10.776Z,99.98
2022-10-18T01:13:52.181Z,99.84
2022-10-18T01:16:27.402Z,100.00
2022-10-18T01:19:05.917Z,100.00
2022-10-18T01:21:44.230Z,100.00
2022-10-18T01:27:43.988Z,100.00
2022-10-18T01:30:41.804Z,100.00
2022-10-18T01:33:18.332Z,100.00
2022-10-18T01:35:50.104Z,100.00
2022-10-18T01:38:20.283Z,99.83
2022-10-18T01:40:51.297Z,99.79
2022-10-18T01:43:21.573Z,99.84
2022-10-18T01:45:51.577Z,99.85
2022-10-18T01:48:20.077Z,99.95
2022-10-18T01:50:47.604Z,99.82
2022-10-18T01:53:32.364Z,100.00
2022-10-18T01:56:17.348Z,99.92
2022-10-18T01:59:06.287Z,100.00
2022-10-18T02:01:45.322Z,100.00
2022-10-18T02:04:24.136Z,99.92
2022-10-18T02:06:58.907Z,100.00
2022-10-18T02:09:39.226Z,99.41
2022-10-18T02:12:11.904Z,99.44
2022-10-18T02:14:40.844Z,99.44
2022-10-18T02:17:13.260Z,99.32
2022-10-18T02:19:44.194Z,98.92
2022-10-18T02:22:13.644Z,99.19
2022-10-18T02:24:45.765Z,99.48
2022-10-18T02:27:13.776Z,99.24
2022-10-18T02:29:42.545Z,99.30
2022-10-18T02:32:19.307Z,99.45
2022-10-18T02:34:50.213Z,99.70
2022-10-18T02:37:18.571Z,99.48
2022-10-18T02:39:48.669Z,99.81
2022-10-18T02:42:16.694Z,99.93
2022-10-18T02:44:44.227Z,100.00
2022-10-18T02:47:13.552Z,99.92
2022-10-18T02:49:41.186Z,99.90
2022-10-18T02:52:08.739Z,100.00
2022-10-18T02:54:36.252Z,100.00
2022-10-18T02:57:03.748Z,100.00
2022-10-18T02:59:31.317Z,100.00
2022-10-18T03:01:58.837Z,100.00
2022-10-18T03:06:56.323Z,100.00
2022-10-18T03:09:23.865Z,100.00
2022-10-18T03:11:51.385Z,100.00
2022-10-18T03:14:18.881Z,100.00
2022-10-18T03:16:46.466Z,100.00
2022-10-18T03:19:14.035Z,100.00
2022-10-18T03:21:42.884Z,100.00
2022-10-18T03:24:10.391Z,100.00
2022-10-18T03:26:37.909Z,100.00
2022-10-18T03:29:05.554Z,100.00
2022-10-18T03:31:33.664Z,100.00
2022-10-18T03:34:01.208Z,100.00
2022-10-18T03:36:28.797Z,100.00
2022-10-18T03:38:57.724Z,99.86
2022-10-18T03:41:25.359Z,100.00
2022-10-18T03:43:52.848Z,100.00
2022-10-18T03:46:20.365Z,100.00
2022-10-18T03:48:47.876Z,100.00
2022-10-18T03:51:15.402Z,100.00
2022-10-18T03:53:42.947Z,100.00
2022-10-18T03:56:11.840Z,100.00
2022-10-18T03:58:39.363Z,100.00
2022-10-18T04:01:07.047Z,100.00
2022-10-18T04:03:34.547Z,100.00
2022-10-18T04:06:03.517Z,100.00
2022-10-18T04:08:31.170Z,100.00
2022-10-18T04:10:58.703Z,100.00
2022-10-18T04:13:27.588Z,100.00
2022-10-18T04:15:55.093Z,100.00
2022-10-18T04:18:22.601Z,100.00
2022-10-18T04:20:50.087Z,100.00
2022-10-18T04:23:17.629Z,100.00
2022-10-18T04:25:45.180Z,100.00
2022-10-18T04:28:12.703Z,100.00
2022-10-18T04:30:41.548Z,100.00
2022-10-18T04:33:09.136Z,100.00
2022-10-18T04:35:37.245Z,100.00
2022-10-18T04:38:04.764Z,100.00
2022-10-18T04:40:32.265Z,100.00
2022-10-18T04:42:59.769Z,100.00
2022-10-18T04:45:27.285Z,99.94
2022-10-18T04:47:56.127Z,100.00
2022-10-18T04:50:23.683Z,100.00
2022-10-18T04:52:53.387Z,100.00
2022-10-18T04:55:21.603Z,100.00
2022-10-18T04:57:49.124Z,100.00
2022-10-18T05:00:16.831Z,100.00
2022-10-18T05:02:44.372Z,100.00
2022-10-18T05:05:14.191Z,100.00
2022-10-18T05:07:42.255Z,100.00
2022-10-18T05:10:10.471Z,100.00
2022-10-18T05:12:38.006Z,100.00
2022-10-18T05:15:06.399Z,100.00
2022-10-18T05:17:33.941Z,100.00
2022-10-18T05:20:01.495Z,100.00
2022-10-18T05:22:30.635Z,100.00
2022-10-18T05:24:58.384Z,100.00
2022-10-18T05:27:25.960Z,100.00
2022-10-18T05:29:53.461Z,100.00
2022-10-18T05:32:21.056Z,100.00
2022-10-18T05:34:48.582Z,100.00
2022-10-18T05:37:16.089Z,100.00
2022-10-18T05:39:44.925Z,100.00
2022-10-18T05:42:12.456Z,100.00
2022-10-18T05:44:40.015Z,100.00
2022-10-18T05:47:07.486Z,100.00
2022-10-18T05:49:35.955Z,100.00
2022-10-18T05:52:03.580Z,100.00
2022-10-18T05:54:31.096Z,100.00
2022-10-18T05:56:59.949Z,100.00
2022-10-18T05:59:27.479Z,100.00
2022-10-18T06:01:54.982Z,100.00
2022-10-18T06:04:22.565Z,100.00
2022-10-18T06:06:50.068Z,100.00
2022-10-18T06:09:17.628Z,100.00
2022-10-18T06:11:45.140Z,100.00
2022-10-18T06:14:14.153Z,98.68
2022-10-18T06:16:41.678Z,98.68
2022-10-18T06:19:09.184Z,98.97
2022-10-18T06:21:36.724Z,99.64
2022-10-18T06:24:04.614Z,99.19
2022-10-18T06:26:32.107Z,99.40
2022-10-18T06:28:59.658Z,99.95
2022-10-18T06:31:28.623Z,99.80
2022-10-18T06:33:57.229Z,99.37
2022-10-18T06:36:25.480Z,99.03
2022-10-18T06:38:53.724Z,99.53
2022-10-18T06:41:22.053Z,99.74
2022-10-18T06:43:50.111Z,99.39
2022-10-18T06:46:18.093Z,99.13
2022-10-18T06:48:47.395Z,98.80
2022-10-18T06:51:15.134Z,97.83
2022-10-18T06:53:59.301Z,97.64
2022-10-18T06:56:31.397Z,97.08
2022-10-18T07:01:31.695Z,97.05
2022-10-18T07:04:00.615Z,97.06
2022-10-18T07:06:28.167Z,96.89
2022-10-18T07:08:56.104Z,97.70
2022-10-18T07:11:26.112Z,96.78
2022-10-18T07:14:00.244Z,96.65
2022-10-18T07:16:27.825Z,96.20
2022-10-18T07:18:55.359Z,96.33
2022-10-18T07:21:25.843Z,96.71
2022-10-18T07:23:54.230Z,97.08
2022-10-18T07:26:23.994Z,97.17
2022-10-18T07:28:55.191Z,97.18
2022-10-18T07:31:24.085Z,96.79
2022-10-18T07:33:51.880Z,97.12
2022-10-18T07:36:21.164Z,96.56
2022-10-18T07:38:51.798Z,96.85
2022-10-18T07:41:20.482Z,96.76
2022-10-18T07:43:50.718Z,96.52
2022-10-18T07:46:19.760Z,96.70
2022-10-18T07:48:47.810Z,97.26
2022-10-18T07:51:15.693Z,97.34
2022-10-18T07:53:43.427Z,97.48
2022-10-18T07:56:16.396Z,96.99
2022-10-18T07:58:44.566Z,96.78
2022-10-18T08:01:12.738Z,96.84
2022-10-18T08:03:40.765Z,96.94
2022-10-18T08:06:10.253Z,97.02
2022-10-18T08:08:39.668Z,97.09
2022-10-18T08:11:09.870Z,97.20
2022-10-18T08:13:38.790Z,97.78
2022-10-18T08:16:08.335Z,96.85
2022-10-18T08:18:36.396Z,95.16
2022-10-18T08:21:06.221Z,95.18
2022-10-18T08:23:35.306Z,94.60
2022-10-18T08:26:03.861Z,94.75
2022-10-18T08:28:31.681Z,94.69
2022-10-18T08:31:04.863Z,94.38
2022-10-18T08:33:32.703Z,93.11
2022-10-18T08:36:02.104Z,94.33
2022-10-18T08:38:31.772Z,93.07
2022-10-18T08:41:01.060Z,91.05
2022-10-18T08:43:37.042Z,90.90
2022-10-18T08:46:06.316Z,89.67
2022-10-18T08:48:39.892Z,88.87
2022-10-18T08:51:18.251Z,88.34
2022-10-18T08:53:57.653Z,86.60
2022-10-18T08:56:28.332Z,85.48
2022-10-18T08:58:56.106Z,82.80
2022-10-18T09:01:39.162Z,80.20
2022-10-18T09:04:35.404Z,77.86
2022-10-18T09:07:22.264Z,77.95
2022-10-18T09:09:56.385Z,76.71
2022-10-18T09:12:48.941Z,76.90
2022-10-18T09:15:22.963Z,75.41
2022-10-18T09:18:04.961Z,75.39
2022-10-18T09:20:40.494Z,74.21
2022-10-18T09:23:19.486Z,74.60
2022-10-18T09:25:49.317Z,74.69
2022-10-18T09:28:25.092Z,73.88
2022-10-18T09:30:59.855Z,74.67
2022-10-18T09:33:49.231Z,75.40
2022-10-18T09:36:21.742Z,73.08
2022-10-18T09:38:56.048Z,74.03
2022-10-18T09:41:29.343Z,74.55
2022-10-18T09:44:01.513Z,74.79
2022-10-18T09:46:33.983Z,74.17
2022-10-18T09:49:06.881Z,73.54
2022-10-18T09:51:37.842Z,74.09
2022-10-18T09:54:21.211Z,74.24
2022-10-18T09:56:52.232Z,74.12
2022-10-18T09:59:34.837Z,73.91
2022-10-18T10:02:02.470Z,73.65
2022-10-18T10:04:31.649Z,72.75
2022-10-18T10:07:02.034Z,70.79
2022-10-18T10:09:31.337Z,70.93
2022-10-18T10:11:59.595Z,72.03
2022-10-18T10:14:30.204Z,73.63
2022-10-18T10:17:02.111Z,74.10
2022-10-18T10:19:33.900Z,73.79
2022-10-18T10:22:06.390Z,73.58
2022-10-18T10:24:47.497Z,73.73
2022-10-18T10:27:21.224Z,71.42
2022-10-18T10:30:00.462Z,72.46
2022-10-18T10:32:39.283Z,72.96
2022-10-18T10:35:33.925Z,73.50
2022-10-18T10:38:03.528Z,72.92
2022-10-18T10:40:32.796Z,73.25
2022-10-18T10:43:18.340Z,73.63
2022-10-18T10:46:02.051Z,71.26
2022-10-18T10:48:33.658Z,70.71
2022-10-18T10:51:09.716Z,70.20
2022-10-18T10:53:46.726Z,71.03
2022-10-18T10:56:22.589Z,70.83
2022-10-18T10:58:51.907Z,69.78
2022-10-18T11:01:26.932Z,69.19
2022-10-18T11:03:57.266Z,66.62
2022-10-18T11:06:51.096Z,67.72
2022-10-18T11:09:45.263Z,65.77
2022-10-18T11:12:28.043Z,65.33
2022-10-18T11:15:11.702Z,66.80
2022-10-18T11:17:42.875Z,67.85
2022-10-18T11:20:22.270Z,67.93
2022-10-18T11:23:00.822Z,66.82
2022-10-18T11:25:41.537Z,65.58
2022-10-18T11:28:18.544Z,66.25
2022-10-18T11:30:59.883Z,66.37
2022-10-18T11:34:07.216Z,67.26
2022-10-18T11:36:33.984Z,67.92
2022-10-18T11:39:16.865Z,69.22
2022-10-18T11:41:52.712Z,69.99
2022-10-18T11:44:28.435Z,69.79
2022-10-18T11:47:05.481Z,70.14
2022-10-18T11:49:45.108Z,69.21
2022-10-18T11:52:20.138Z,69.98
2022-10-18T11:55:05.880Z,70.40
2022-10-18T11:57:43.819Z,71.30
2022-10-18T12:00:33.584Z,71.52
2022-10-18T12:03:31.319Z,72.30
2022-10-18T12:06:04.825Z,72.80
2022-10-18T12:08:36.945Z,71.86
2022-10-18T12:11:13.664Z,71.24
2022-10-18T12:13:46.805Z,71.47
2022-10-18T12:16:15.327Z,70.42
2022-10-18T12:18:50.739Z,68.29
2022-10-18T12:21:25.426Z,65.22
2022-10-18T12:23:57.615Z,63.54
2022-10-18T12:26:29.022Z,61.14
2022-10-18T12:29:09.222Z,61.03
2022-10-18T12:31:41.504Z,61.09
2022-10-18T12:34:26.944Z,59.87
2022-10-18T12:37:21.229Z,57.84
2022-10-18T12:42:45.520Z,54.37
2022-10-18T12:45:25.699Z,54.89
2022-10-18T12:47:54.386Z,53.77
2022-10-18T12:50:30.292Z,52.43
2022-10-18T12:53:18.850Z,51.69
2022-10-18T12:55:49.011Z,53.72
2022-10-18T12:58:27.454Z,55.01
2022-10-18T13:01:03.162Z,56.49
2022-10-18T13:03:53.989Z,59.38
2022-10-18T13:06:22.708Z,61.40
2022-10-18T13:09:17.680Z,61.92
2022-10-18T13:11:46.043Z,62.26
2022-10-18T13:14:48.213Z,62.52
2022-10-18T13:17:33.882Z,62.68
2022-10-18T13:20:28.098Z,61.50
2022-10-18T13:23:18.069Z,62.34
2022-10-18T13:26:02.198Z,62.17
2022-10-18T13:28:40.021Z,62.36
2022-10-18T13:31:24.201Z,63.03
2022-10-18T13:33:52.052Z,63.37
2022-10-18T13:36:24.581Z,63.39
2022-10-18T13:39:05.101Z,63.95
2022-10-18T13:42:14.679Z,65.10
2022-10-18T13:44:44.618Z,65.01
2022-10-18T13:47:15.043Z,65.19
2022-10-18T13:50:16.787Z,66.09
2022-10-18T13:53:13.515Z,65.76
2022-10-18T13:55:56.185Z,65.99
2022-10-18T13:58:41.081Z,67.30
2022-10-18T14:01:25.676Z,67.13
2022-10-18T14:04:38.784Z,65.36
2022-10-18T14:07:08.463Z,67.53
2022-10-18T14:09:45.076Z,67.06
2022-10-18T14:12:23.717Z,68.25
2022-10-18T14:14:58.761Z,66.08
2022-10-18T14:17:34.904Z,66.69
2022-10-18T14:20:15.579Z,66.97
2022-10-18T14:22:48.703Z,67.18
2022-10-18T14:25:22.599Z,67.22
2022-10-18T14:27:53.671Z,68.44
2022-10-18T14:30:23.936Z,68.19
2022-10-18T14:32:54.385Z,68.00
2022-10-18T14:35:32.968Z,69.22
2022-10-18T14:38:01.909Z,68.94
2022-10-18T14:40:37.932Z,68.76
2022-10-18T14:43:11.300Z,69.13
2022-10-18T14:45:40.359Z,68.01
2022-10-18T14:48:14.780Z,68.75
2022-10-18T14:50:44.173Z,69.29
2022-10-18T14:53:17.550Z,70.65
2022-10-18T14:55:53.141Z,70.10
2022-10-18T14:58:21.971Z,71.05
2022-10-18T15:00:51.128Z,70.13
2022-10-18T15:03:19.339Z,71.35
2022-10-18T15:05:55.429Z,72.00
2022-10-18T15:08:25.000Z,72.32
2022-10-18T15:10:53.196Z,72.76
2022-10-18T15:13:20.861Z,73.21
2022-10-18T15:15:48.627Z,73.90
2022-10-18T15:18:22.673Z,74.33
2022-10-18T15:21:20.247Z,73.92
2022-10-18T15:23:47.824Z,75.87
2022-10-18T15:26:21.437Z,77.76
2022-10-18T15:28:53.019Z,78.15
2022-10-18T15:31:26.669Z,78.52
2022-10-18T15:34:08.842Z,79.06
2022-10-18T15:36:37.181Z,79.72
2022-10-18T15:39:07.429Z,80.55
2022-10-18T15:41:44.674Z,80.65
2022-10-18T15:44:26.023Z,80.90
2022-10-18T15:46:56.261Z,81.44
2022-10-18T15:49:51.199Z,81.95
2022-10-18T15:52:36.634Z,82.37
2022-10-18T15:55:39.112Z,83.10
2022-10-18T15:58:12.422Z,83.50
2022-10-18T16:00:39.867Z,83.89
2022-10-18T16:03:08.740Z,84.13
2022-10-18T16:05:38.859Z,84.86
2022-10-18T16:08:06.689Z,85.50
2022-10-18T16:10:34.316Z,86.06
2022-10-18T16:13:01.857Z,86.41
2022-10-18T16:15:29.406Z,86.48
2022-10-18T16:17:56.914Z,86.13
2022-10-18T16:20:26.759Z,86.72
2022-10-18T16:22:55.646Z,86.66
2022-10-18T16:25:23.154Z,86.51
2022-10-18T16:27:50.731Z,87.20
2022-10-18T16:30:20.917Z,87.82
2022-10-18T16:32:48.834Z,88.71
2022-10-18T16:35:16.594Z,88.98
2022-10-18T16:37:44.092Z,88.86
2022-10-18T16:40:23.306Z,89.05
2022-10-18T16:42:50.855Z,89.28
2022-10-18T16:45:19.448Z,89.54
2022-10-18T16:47:47.261Z,89.70
2022-10-18T16:50:17.977Z,90.04
2022-10-18T16:52:48.445Z,90.20
2022-10-18T16:55:21.238Z,90.23
2022-10-18T16:57:51.786Z,90.47
2022-10-18T17:00:21.641Z,90.40
2022-10-18T17:02:50.061Z,90.48
2022-10-18T17:05:19.038Z,90.61
2022-10-18T17:07:47.322Z,90.66
2022-10-18T17:10:16.641Z,91.03
2022-10-18T17:12:44.181Z,91.18
2022-10-18T17:15:13.665Z,91.19
2022-10-18T17:17:41.432Z,91.27
2022-10-18T17:20:10.085Z,91.66
2022-10-18T17:22:37.757Z,91.61
2022-10-18T17:25:05.768Z,91.93
2022-10-18T17:27:33.543Z,92.20
2022-10-18T17:30:01.448Z,92.15
2022-10-18T17:32:30.347Z,92.71
2022-10-18T17:34:58.626Z,92.93
2022-10-18T17:37:26.273Z,93.34
2022-10-18T17:39:53.784Z,93.28
2022-10-18T17:42:21.947Z,93.74
2022-10-18T17:44:51.905Z,93.67
2022-10-18T17:47:20.520Z,93.80
2022-10-18T17:49:49.377Z,93.64
2022-10-18T17:52:16.983Z,94.13
2022-10-18T17:54:44.516Z,94.50
2022-10-18T17:57:12.027Z,94.74
2022-10-18T17:59:39.595Z,95.21
2022-10-18T18:02:07.216Z,95.36
2022-10-18T18:04:34.801Z,94.94
2022-10-18T18:07:04.387Z,94.99
2022-10-18T18:09:32.187Z,95.09
2022-10-18T18:12:00.161Z,95.15
2022-10-18T18:14:27.811Z,95.21
2022-10-18T18:16:55.370Z,95.20
2022-10-18T18:19:23.837Z,95.32
2022-10-18T18:21:53.526Z,95.49
2022-10-18T18:24:24.644Z,95.50
2022-10-18T18:26:53.576Z,95.74
2022-10-18T18:29:21.264Z,95.82
2022-10-18T18:31:49.424Z,96.10
2022-10-18T18:34:17.635Z,96.17
2022-10-18T18:36:45.507Z,95.96
2022-10-18T18:39:20.718Z,96.03
2022-10-18T18:41:51.159Z,95.77
2022-10-18T18:44:20.099Z,95.86
2022-10-18T18:46:48.185Z,96.08
2022-10-18T18:49:15.875Z,96.44
2022-10-18T18:51:43.565Z,96.61
2022-10-18T18:54:13.845Z,96.85
2022-10-18T18:56:42.605Z,97.02
2022-10-18T18:59:13.783Z,97.16
2022-10-18T19:01:42.111Z,97.01
2022-10-18T19:04:11.015Z,96.81
2022-10-18T19:06:41.193Z,96.88
2022-10-18T19:09:13.182Z,97.00
2022-10-18T19:11:40.783Z,97.27
2022-10-18T19:14:09.142Z,97.43
2022-10-18T19:16:39.246Z,97.58
2022-10-18T19:19:08.916Z,97.96
2022-10-18T19:21:38.306Z,97.90
2022-10-18T19:24:06.893Z,98.02
2022-10-18T19:26:37.105Z,97.95
2022-10-18T19:29:09.359Z,98.01
2022-10-18T19:31:39.141Z,98.08
2022-10-18T19:34:08.856Z,97.71
2022-10-18T19:36:36.877Z,98.01
2022-10-18T19:39:05.817Z,98.24
2022-10-18T19:41:33.489Z,98.12
2022-10-18T19:44:01.178Z,98.16
2022-10-18T19:46:29.068Z,98.06
2022-10-18T19:48:58.533Z,97.95
2022-10-18T19:51:28.316Z,97.91
2022-10-18T19:53:57.111Z,98.00
2022-10-18T19:56:26.127Z,98.26
2022-10-18T19:58:54.365Z,98.31
2022-10-18T20:01:22.073Z,98.19
2022-10-18T20:03:49.810Z,98.08
2022-10-18T20:06:19.033Z,98.63
2022-10-18T20:08:46.630Z,99.23
2022-10-18T20:11:17.393Z,99.41
2022-10-18T20:13:44.943Z,99.78
2022-10-18T20:16:20.127Z,99.27
2022-10-18T20:18:49.677Z,99.37
2022-10-18T20:21:18.756Z,99.58
2022-10-18T20:23:46.405Z,99.63
2022-10-18T20:26:19.636Z,99.98
2022-10-18T20:28:55.594Z,100.00
2022-10-18T20:31:24.952Z,100.00
2022-10-18T20:33:55.602Z,100.00
2022-10-18T20:36:24.795Z,100.00
2022-10-18T20:38:53.175Z,100.00
2022-10-18T20:41:22.676Z,100.00
2022-10-18T20:43:53.831Z,100.00
2022-10-18T20:46:21.815Z,100.00
2022-10-18T20:48:50.349Z,100.00
2022-10-18T20:51:18.196Z,100.00
2022-10-18T20:53:47.156Z,100.00
2022-10-18T20:56:16.000Z,100.00
2022-10-18T20:58:45.147Z,100.00
2022-10-18T21:01:15.180Z,100.00
2022-10-18T21:03:45.406Z,100.00
2022-10-18T21:06:14.312Z,100.00
2022-10-18T21:08:42.393Z,100.00
2022-10-18T21:11:11.900Z,100.00
2022-10-18T21:13:40.684Z,100.00
2022-10-18T21:16:08.650Z,100.00
2022-10-18T21:18:37.507Z,100.00
2022-10-18T21:21:09.184Z,100.00
2022-10-18T21:23:36.899Z,100.00
2022-10-18T21:26:05.189Z,100.00
2022-10-18T21:28:34.262Z,100.00
2022-10-18T21:31:14.401Z,100.00
2022-10-18T21:33:42.357Z,100.00
2022-10-18T21:36:10.595Z,100.00
2022-10-18T21:38:38.760Z,100.00
2022-10-18T21:41:09.628Z,100.00
2022-10-18T21:43:40.409Z,100.00
2022-10-18T21:46:08.529Z,100.00
2022-10-18T21:48:36.033Z,100.00
2022-10-18T21:51:04.767Z,100.00
2022-10-18T21:53:32.547Z,100.00
2022-10-18T21:56:05.712Z,100.00
2022-10-18T21:58:33.553Z,100.00
2022-10-18T22:01:02.734Z,100.00
2022-10-18T22:03:30.321Z,100.00
2022-10-18T22:05:59.187Z,99.97
2022-10-18T22:08:26.707Z,100.00
2022-10-18T22:10:54.380Z,100.00
2022-10-18T22:13:21.903Z,100.00
2022-10-18T22:15:49.695Z,100.00
2022-10-18T22:18:19.093Z,100.00
2022-10-18T22:20:54.384Z,100.00
2022-10-18T22:23:22.024Z,100.00
2022-10-18T22:25:49.940Z,100.00
2022-10-18T22:28:17.642Z,100.00
2022-10-18T22:30:45.144Z,100.00
2022-10-18T22:33:12.660Z,100.00
2022-10-18T22:35:41.501Z,100.00
2022-10-18T22:38:09.019Z,100.00
2022-10-18T22:40:36.523Z,100.00
2022-10-18T22:43:04.057Z,100.00
2022-10-18T22:45:31.585Z,100.00
2022-10-18T22:47:59.191Z,100.00
2022-10-18T22:50:26.785Z,100.00
2022-10-18T22:52:55.632Z,100.00
2022-10-18T22:55:23.673Z,100.00
2022-10-18T22:57:51.207Z,100.00
2022-10-18T23:00:18.716Z,100.00
2022-10-18T23:02:46.233Z,100.00
2022-10-18T23:05:13.752Z,100.00
2022-10-18T23:07:41.265Z,100.00
2022-10-18T23:10:10.392Z,100.00
2022-10-18T23:12:37.999Z,100.00
2022-10-18T23:15:06.546Z,100.00
2022-10-18T23:17:34.376Z,100.00
2022-10-18T23:20:02.073Z,100.00
2022-10-18T23:22:29.602Z,100.00
2022-10-18T23:24:57.187Z,100.00
2022-10-18T23:27:26.023Z,100.00
2022-10-18T23:29:53.612Z,100.00
2022-10-18T23:32:21.135Z,100.00
2022-10-18T23:34:48.701Z,100.00
2022-10-18T23:37:16.212Z,100.00
2022-10-18T23:39:43.715Z,100.00
2022-10-18T23:42:11.376Z,100.00
2022-10-18T23:44:40.289Z,100.00
2022-10-18T23:47:07.849Z,100.00
2022-10-18T23:49:35.582Z,100.00
2022-10-18T23:52:03.092Z,100.00
2022-10-18T23:54:30.624Z,100.00
2022-10-18T23:56:58.205Z,100.00
2022-10-18T23:59:25.953Z,100.00
